sensor_id;sensor_type;location;lat;lon;timestamp;P1;durP1;ratioP1;P2;durP2;ratioP2
80101;SDS011;69407;44.966;19.622;2023-12-29T00:00:30;264.75;;;117.35;;
80101;SDS011;69407;44.966;19.622;2023-12-29T00:02:56;239.50;;;102.80;;
80101;SDS011;69407;44.966;19.622;2023-12-29T00:05:21;219.95;;;92.78;;
80101;SDS011;69407;44.966;19.622;2023-12-29T00:07:47;209.10;;;90.70;;
80101;SDS011;69407;44.966;19.622;2023-12-29T00:10:12;170.68;;;71.53;;
80101;SDS011;69407;44.966;19.622;2023-12-29T00:12:38;126.22;;;57.28;;
80101;SDS011;69407;44.966;19.622;2023-12-29T00:15:04;118.70;;;48.92;;
80101;SDS011;69407;44.966;19.622;2023-12-29T00:17:30;90.78;;;40.53;;
80101;SDS011;69407;44.966;19.622;2023-12-29T00:19:57;105.63;;;43.20;;
80101;SDS011;69407;44.966;19.622;2023-12-29T00:22:22;97.00;;;43.38;;
80101;SDS011;69407;44.966;19.622;2023-12-29T00:24:50;111.22;;;48.45;;
80101;SDS011;69407;44.966;19.622;2023-12-29T00:27:15;97.55;;;43.33;;
80101;SDS011;69407;44.966;19.622;2023-12-29T00:29:41;101.63;;;47.28;;
80101;SDS011;69407;44.966;19.622;2023-12-29T00:32:07;114.47;;;47.78;;
80101;SDS011;69407;44.966;19.622;2023-12-29T00:34:33;107.22;;;50.92;;
80101;SDS011;69407;44.966;19.622;2023-12-29T00:36:59;109.80;;;48.60;;
80101;SDS011;69407;44.966;19.622;2023-12-29T00:39:24;107.88;;;48.45;;
80101;SDS011;69407;44.966;19.622;2023-12-29T00:41:55;127.53;;;54.22;;
80101;SDS011;69407;44.966;19.622;2023-12-29T00:44:22;122.13;;;53.63;;
80101;SDS011;69407;44.966;19.622;2023-12-29T00:46:48;135.15;;;57.70;;
80101;SDS011;69407;44.966;19.622;2023-12-29T00:49:13;139.18;;;62.17;;
80101;SDS011;69407;44.966;19.622;2023-12-29T00:51:39;136.13;;;57.78;;
80101;SDS011;69407;44.966;19.622;2023-12-29T00:54:06;135.05;;;57.65;;
80101;SDS011;69407;44.966;19.622;2023-12-29T00:56:32;130.40;;;55.58;;
80101;SDS011;69407;44.966;19.622;2023-12-29T00:58:58;130.48;;;55.95;;
80101;SDS011;69407;44.966;19.622;2023-12-29T01:01:23;131.00;;;55.72;;
80101;SDS011;69407;44.966;19.622;2023-12-29T01:03:49;102.32;;;45.10;;
80101;SDS011;69407;44.966;19.622;2023-12-29T01:06:14;104.32;;;47.92;;
80101;SDS011;69407;44.966;19.622;2023-12-29T01:08:40;115.00;;;51.40;;
80101;SDS011;69407;44.966;19.622;2023-12-29T01:11:05;106.43;;;50.47;;
80101;SDS011;69407;44.966;19.622;2023-12-29T01:13:31;106.78;;;46.90;;
80101;SDS011;69407;44.966;19.622;2023-12-29T01:15:56;117.13;;;48.13;;
80101;SDS011;69407;44.966;19.622;2023-12-29T01:18:22;127.28;;;52.97;;
80101;SDS011;69407;44.966;19.622;2023-12-29T01:20:47;129.82;;;53.97;;
80101;SDS011;69407;44.966;19.622;2023-12-29T01:23:13;133.93;;;55.97;;
80101;SDS011;69407;44.966;19.622;2023-12-29T01:25:38;140.88;;;55.97;;
80101;SDS011;69407;44.966;19.622;2023-12-29T01:28:04;150.82;;;56.88;;
80101;SDS011;69407;44.966;19.622;2023-12-29T01:30:30;140.93;;;56.85;;
80101;SDS011;69407;44.966;19.622;2023-12-29T01:32:55;137.95;;;54.97;;
80101;SDS011;69407;44.966;19.622;2023-12-29T01:35:20;125.57;;;50.83;;
80101;SDS011;69407;44.966;19.622;2023-12-29T01:37:46;113.70;;;47.95;;
80101;SDS011;69407;44.966;19.622;2023-12-29T01:40:11;118.10;;;50.33;;
80101;SDS011;69407;44.966;19.622;2023-12-29T01:42:37;115.00;;;46.55;;
80101;SDS011;69407;44.966;19.622;2023-12-29T01:45:03;104.85;;;42.58;;
80101;SDS011;69407;44.966;19.622;2023-12-29T01:47:29;106.40;;;44.90;;
80101;SDS011;69407;44.966;19.622;2023-12-29T01:49:55;107.25;;;45.42;;
80101;SDS011;69407;44.966;19.622;2023-12-29T01:52:20;106.22;;;43.15;;
80101;SDS011;69407;44.966;19.622;2023-12-29T01:54:47;81.78;;;37.85;;
80101;SDS011;69407;44.966;19.622;2023-12-29T01:57:15;83.60;;;36.28;;
80101;SDS011;69407;44.966;19.622;2023-12-29T01:59:41;105.95;;;44.75;;
80101;SDS011;69407;44.966;19.622;2023-12-29T02:04:35;98.95;;;45.25;;
80101;SDS011;69407;44.966;19.622;2023-12-29T02:07:02;109.65;;;46.80;;
80101;SDS011;69407;44.966;19.622;2023-12-29T02:09:27;106.22;;;46.92;;
80101;SDS011;69407;44.966;19.622;2023-12-29T02:11:53;127.00;;;53.97;;
80101;SDS011;69407;44.966;19.622;2023-12-29T02:14:19;116.13;;;50.70;;
80101;SDS011;69407;44.966;19.622;2023-12-29T02:19:41;118.47;;;45.42;;
80101;SDS011;69407;44.966;19.622;2023-12-29T02:22:11;116.85;;;48.45;;
80101;SDS011;69407;44.966;19.622;2023-12-29T02:24:37;101.75;;;45.40;;
80101;SDS011;69407;44.966;19.622;2023-12-29T02:27:07;100.18;;;40.45;;
80101;SDS011;69407;44.966;19.622;2023-12-29T02:29:44;93.03;;;38.80;;
80101;SDS011;69407;44.966;19.622;2023-12-29T02:32:15;91.97;;;39.92;;
80101;SDS011;69407;44.966;19.622;2023-12-29T02:34:44;105.90;;;44.05;;
80101;SDS011;69407;44.966;19.622;2023-12-29T02:37:13;101.38;;;40.85;;
80101;SDS011;69407;44.966;19.622;2023-12-29T02:39:40;97.47;;;42.58;;
80101;SDS011;69407;44.966;19.622;2023-12-29T02:42:05;96.03;;;39.33;;
80101;SDS011;69407;44.966;19.622;2023-12-29T02:44:31;92.47;;;38.60;;
80101;SDS011;69407;44.966;19.622;2023-12-29T02:46:56;124.57;;;35.63;;
80101;SDS011;69407;44.966;19.622;2023-12-29T02:49:22;82.20;;;36.83;;
80101;SDS011;69407;44.966;19.622;2023-12-29T02:51:48;84.68;;;35.15;;
80101;SDS011;69407;44.966;19.622;2023-12-29T02:54:15;95.85;;;35.72;;
80101;SDS011;69407;44.966;19.622;2023-12-29T02:56:40;99.55;;;34.95;;
80101;SDS011;69407;44.966;19.622;2023-12-29T02:59:05;109.85;;;39.97;;
80101;SDS011;69407;44.966;19.622;2023-12-29T03:01:31;75.25;;;33.78;;
80101;SDS011;69407;44.966;19.622;2023-12-29T03:03:56;77.43;;;35.55;;
80101;SDS011;69407;44.966;19.622;2023-12-29T03:06:22;123.82;;;38.17;;
80101;SDS011;69407;44.966;19.622;2023-12-29T03:08:47;78.13;;;34.17;;
80101;SDS011;69407;44.966;19.622;2023-12-29T03:11:13;109.50;;;36.45;;
80101;SDS011;69407;44.966;19.622;2023-12-29T03:13:39;101.85;;;36.15;;
80101;SDS011;69407;44.966;19.622;2023-12-29T03:16:04;172.60;;;41.20;;
80101;SDS011;69407;44.966;19.622;2023-12-29T03:18:30;167.85;;;40.33;;
80101;SDS011;69407;44.966;19.622;2023-12-29T03:20:55;147.05;;;37.65;;
80101;SDS011;69407;44.966;19.622;2023-12-29T03:23:21;131.80;;;39.33;;
80101;SDS011;69407;44.966;19.622;2023-12-29T03:25:46;114.05;;;36.88;;
80101;SDS011;69407;44.966;19.622;2023-12-29T03:28:12;110.75;;;34.42;;
80101;SDS011;69407;44.966;19.622;2023-12-29T03:30:37;87.80;;;36.92;;
80101;SDS011;69407;44.966;19.622;2023-12-29T03:33:03;216.27;;;47.72;;
80101;SDS011;69407;44.966;19.622;2023-12-29T03:35:28;190.60;;;43.38;;
80101;SDS011;69407;44.966;19.622;2023-12-29T03:37:54;173.35;;;41.95;;
80101;SDS011;69407;44.966;19.622;2023-12-29T03:40:20;222.52;;;50.42;;
80101;SDS011;69407;44.966;19.622;2023-12-29T03:42:45;146.90;;;43.55;;
80101;SDS011;69407;44.966;19.622;2023-12-29T03:45:11;174.95;;;40.40;;
80101;SDS011;69407;44.966;19.622;2023-12-29T03:47:36;272.27;;;47.85;;
80101;SDS011;69407;44.966;19.622;2023-12-29T03:50:02;290.70;;;50.38;;
80101;SDS011;69407;44.966;19.622;2023-12-29T03:52:28;300.98;;;54.70;;
80101;SDS011;69407;44.966;19.622;2023-12-29T03:54:54;246.50;;;52.53;;
80101;SDS011;69407;44.966;19.622;2023-12-29T03:57:19;225.65;;;45.47;;
80101;SDS011;69407;44.966;19.622;2023-12-29T03:59:44;259.67;;;49.10;;
80101;SDS011;69407;44.966;19.622;2023-12-29T04:02:10;143.18;;;46.15;;
80101;SDS011;69407;44.966;19.622;2023-12-29T04:04:38;346.02;;;53.75;;
80101;SDS011;69407;44.966;19.622;2023-12-29T04:07:04;179.32;;;47.75;;
80101;SDS011;69407;44.966;19.622;2023-12-29T04:09:30;296.88;;;57.30;;
80101;SDS011;69407;44.966;19.622;2023-12-29T04:11:56;146.00;;;46.97;;
80101;SDS011;69407;44.966;19.622;2023-12-29T04:14:21;220.35;;;54.35;;
80101;SDS011;69407;44.966;19.622;2023-12-29T04:16:47;176.77;;;45.50;;
80101;SDS011;69407;44.966;19.622;2023-12-29T04:19:12;117.63;;;44.67;;
80101;SDS011;69407;44.966;19.622;2023-12-29T04:21:37;165.65;;;49.72;;
80101;SDS011;69407;44.966;19.622;2023-12-29T04:24:03;168.57;;;47.72;;
80101;SDS011;69407;44.966;19.622;2023-12-29T04:26:29;124.07;;;45.63;;
80101;SDS011;69407;44.966;19.622;2023-12-29T04:28:54;133.02;;;46.40;;
80101;SDS011;69407;44.966;19.622;2023-12-29T04:31:20;120.22;;;47.53;;
80101;SDS011;69407;44.966;19.622;2023-12-29T04:33:45;105.85;;;46.55;;
80101;SDS011;69407;44.966;19.622;2023-12-29T04:36:11;104.80;;;45.42;;
80101;SDS011;69407;44.966;19.622;2023-12-29T04:38:37;95.68;;;44.65;;
80101;SDS011;69407;44.966;19.622;2023-12-29T04:41:04;105.20;;;41.70;;
80101;SDS011;69407;44.966;19.622;2023-12-29T04:43:30;93.10;;;40.60;;
80101;SDS011;69407;44.966;19.622;2023-12-29T04:45:55;103.28;;;45.13;;
80101;SDS011;69407;44.966;19.622;2023-12-29T04:48:22;100.25;;;43.90;;
80101;SDS011;69407;44.966;19.622;2023-12-29T04:50:47;96.40;;;44.65;;
80101;SDS011;69407;44.966;19.622;2023-12-29T04:53:12;101.82;;;42.70;;
80101;SDS011;69407;44.966;19.622;2023-12-29T04:55:38;128.77;;;51.78;;
80101;SDS011;69407;44.966;19.622;2023-12-29T04:58:03;123.13;;;52.63;;
80101;SDS011;69407;44.966;19.622;2023-12-29T05:00:29;113.55;;;48.75;;
80101;SDS011;69407;44.966;19.622;2023-12-29T05:02:54;96.72;;;43.17;;
80101;SDS011;69407;44.966;19.622;2023-12-29T05:05:20;95.97;;;45.03;;
80101;SDS011;69407;44.966;19.622;2023-12-29T05:07:45;152.35;;;62.80;;
80101;SDS011;69407;44.966;19.622;2023-12-29T05:10:10;195.77;;;74.32;;
80101;SDS011;69407;44.966;19.622;2023-12-29T05:12:36;215.20;;;83.45;;
80101;SDS011;69407;44.966;19.622;2023-12-29T05:15:01;224.68;;;85.22;;
80101;SDS011;69407;44.966;19.622;2023-12-29T05:17:27;221.55;;;85.85;;
80101;SDS011;69407;44.966;19.622;2023-12-29T05:19:52;218.02;;;90.90;;
80101;SDS011;69407;44.966;19.622;2023-12-29T05:22:18;206.82;;;83.22;;
80101;SDS011;69407;44.966;19.622;2023-12-29T05:24:43;203.57;;;78.55;;
80101;SDS011;69407;44.966;19.622;2023-12-29T05:27:10;184.63;;;73.95;;
80101;SDS011;69407;44.966;19.622;2023-12-29T05:29:36;190.50;;;75.43;;
80101;SDS011;69407;44.966;19.622;2023-12-29T05:32:01;182.27;;;74.47;;
80101;SDS011;69407;44.966;19.622;2023-12-29T05:34:27;168.88;;;70.18;;
80101;SDS011;69407;44.966;19.622;2023-12-29T05:36:53;150.82;;;61.60;;
80101;SDS011;69407;44.966;19.622;2023-12-29T05:39:18;151.68;;;63.40;;
80101;SDS011;69407;44.966;19.622;2023-12-29T05:41:44;139.68;;;61.25;;
80101;SDS011;69407;44.966;19.622;2023-12-29T05:44:11;134.88;;;59.00;;
80101;SDS011;69407;44.966;19.622;2023-12-29T05:46:36;154.50;;;65.43;;
80101;SDS011;69407;44.966;19.622;2023-12-29T05:49:02;149.05;;;68.72;;
80101;SDS011;69407;44.966;19.622;2023-12-29T05:51:27;145.25;;;66.10;;
80101;SDS011;69407;44.966;19.622;2023-12-29T05:53:53;144.35;;;64.43;;
80101;SDS011;69407;44.966;19.622;2023-12-29T05:56:18;147.85;;;64.80;;
80101;SDS011;69407;44.966;19.622;2023-12-29T05:58:44;159.63;;;67.72;;
80101;SDS011;69407;44.966;19.622;2023-12-29T06:01:09;155.50;;;69.55;;
80101;SDS011;69407;44.966;19.622;2023-12-29T06:03:35;215.02;;;92.18;;
80101;SDS011;69407;44.966;19.622;2023-12-29T06:06:01;194.50;;;85.00;;
80101;SDS011;69407;44.966;19.622;2023-12-29T06:08:26;185.50;;;79.13;;
80101;SDS011;69407;44.966;19.622;2023-12-29T06:10:52;222.73;;;97.38;;
80101;SDS011;69407;44.966;19.622;2023-12-29T06:13:17;172.32;;;74.68;;
80101;SDS011;69407;44.966;19.622;2023-12-29T06:15:43;153.07;;;68.60;;
80101;SDS011;69407;44.966;19.622;2023-12-29T06:18:08;147.68;;;63.47;;
80101;SDS011;69407;44.966;19.622;2023-12-29T06:20:34;148.10;;;61.63;;
80101;SDS011;69407;44.966;19.622;2023-12-29T06:23:00;162.02;;;71.32;;
80101;SDS011;69407;44.966;19.622;2023-12-29T06:25:25;160.20;;;69.38;;
80101;SDS011;69407;44.966;19.622;2023-12-29T06:27:51;155.27;;;68.85;;
80101;SDS011;69407;44.966;19.622;2023-12-29T06:30:16;138.02;;;60.78;;
80101;SDS011;69407;44.966;19.622;2023-12-29T06:32:42;160.75;;;59.83;;
80101;SDS011;69407;44.966;19.622;2023-12-29T06:35:08;345.77;;;121.38;;
80101;SDS011;69407;44.966;19.622;2023-12-29T06:37:36;269.33;;;92.90;;
80101;SDS011;69407;44.966;19.622;2023-12-29T06:40:03;200.05;;;71.47;;
80101;SDS011;69407;44.966;19.622;2023-12-29T06:42:29;159.65;;;66.72;;
80101;SDS011;69407;44.966;19.622;2023-12-29T06:44:54;144.85;;;58.78;;
80101;SDS011;69407;44.966;19.622;2023-12-29T06:47:20;169.02;;;67.55;;
80101;SDS011;69407;44.966;19.622;2023-12-29T06:49:45;339.42;;;134.00;;
80101;SDS011;69407;44.966;19.622;2023-12-29T06:52:10;185.48;;;74.63;;
80101;SDS011;69407;44.966;19.622;2023-12-29T06:54:36;202.45;;;72.75;;
80101;SDS011;69407;44.966;19.622;2023-12-29T06:57:01;185.95;;;74.22;;
80101;SDS011;69407;44.966;19.622;2023-12-29T06:59:27;198.23;;;78.20;;
80101;SDS011;69407;44.966;19.622;2023-12-29T07:01:52;166.55;;;70.13;;
80101;SDS011;69407;44.966;19.622;2023-12-29T07:04:18;137.40;;;58.58;;
80101;SDS011;69407;44.966;19.622;2023-12-29T07:06:43;124.53;;;55.13;;
80101;SDS011;69407;44.966;19.622;2023-12-29T07:09:09;120.47;;;53.08;;
80101;SDS011;69407;44.966;19.622;2023-12-29T07:11:35;109.82;;;50.30;;
80101;SDS011;69407;44.966;19.622;2023-12-29T07:14:01;112.78;;;49.70;;
80101;SDS011;69407;44.966;19.622;2023-12-29T07:16:27;98.32;;;45.65;;
80101;SDS011;69407;44.966;19.622;2023-12-29T07:18:52;107.70;;;47.60;;
80101;SDS011;69407;44.966;19.622;2023-12-29T07:21:18;109.15;;;52.08;;
80101;SDS011;69407;44.966;19.622;2023-12-29T07:23:43;106.63;;;49.60;;
80101;SDS011;69407;44.966;19.622;2023-12-29T07:26:09;122.40;;;56.75;;
80101;SDS011;69407;44.966;19.622;2023-12-29T07:28:34;144.77;;;62.92;;
80101;SDS011;69407;44.966;19.622;2023-12-29T07:31:00;152.20;;;70.53;;
80101;SDS011;69407;44.966;19.622;2023-12-29T07:33:26;166.07;;;72.00;;
80101;SDS011;69407;44.966;19.622;2023-12-29T07:35:52;234.05;;;94.90;;
80101;SDS011;69407;44.966;19.622;2023-12-29T07:38:17;209.10;;;84.05;;
80101;SDS011;69407;44.966;19.622;2023-12-29T07:40:43;206.73;;;84.47;;
80101;SDS011;69407;44.966;19.622;2023-12-29T07:43:09;170.55;;;70.35;;
80101;SDS011;69407;44.966;19.622;2023-12-29T07:45:35;149.27;;;64.40;;
80101;SDS011;69407;44.966;19.622;2023-12-29T07:48:03;143.98;;;61.45;;
80101;SDS011;69407;44.966;19.622;2023-12-29T07:50:29;126.28;;;57.63;;
80101;SDS011;69407;44.966;19.622;2023-12-29T07:52:55;129.70;;;63.13;;
80101;SDS011;69407;44.966;19.622;2023-12-29T07:55:20;133.20;;;62.65;;
80101;SDS011;69407;44.966;19.622;2023-12-29T07:57:46;159.02;;;74.78;;
80101;SDS011;69407;44.966;19.622;2023-12-29T08:00:12;154.02;;;74.25;;
80101;SDS011;69407;44.966;19.622;2023-12-29T08:02:39;150.60;;;73.75;;
80101;SDS011;69407;44.966;19.622;2023-12-29T08:05:05;154.95;;;72.93;;
80101;SDS011;69407;44.966;19.622;2023-12-29T08:07:33;133.20;;;66.82;;
80101;SDS011;69407;44.966;19.622;2023-12-29T08:10:00;88.70;;;46.83;;
80101;SDS011;69407;44.966;19.622;2023-12-29T08:12:26;84.72;;;46.15;;
80101;SDS011;69407;44.966;19.622;2023-12-29T08:14:53;89.43;;;46.80;;
80101;SDS011;69407;44.966;19.622;2023-12-29T08:17:18;88.30;;;46.40;;
80101;SDS011;69407;44.966;19.622;2023-12-29T08:19:44;83.05;;;42.67;;
80101;SDS011;69407;44.966;19.622;2023-12-29T08:22:09;76.10;;;40.15;;
80101;SDS011;69407;44.966;19.622;2023-12-29T08:24:35;90.35;;;43.97;;
80101;SDS011;69407;44.966;19.622;2023-12-29T08:27:00;79.47;;;40.95;;
80101;SDS011;69407;44.966;19.622;2023-12-29T08:29:26;67.93;;;36.08;;
80101;SDS011;69407;44.966;19.622;2023-12-29T08:31:51;71.80;;;38.10;;
80101;SDS011;69407;44.966;19.622;2023-12-29T08:34:17;72.65;;;37.00;;
80101;SDS011;69407;44.966;19.622;2023-12-29T08:36:43;79.00;;;42.08;;
80101;SDS011;69407;44.966;19.622;2023-12-29T08:39:08;87.70;;;42.63;;
80101;SDS011;69407;44.966;19.622;2023-12-29T08:41:34;115.07;;;59.17;;
80101;SDS011;69407;44.966;19.622;2023-12-29T08:44:00;86.22;;;43.20;;
80101;SDS011;69407;44.966;19.622;2023-12-29T08:46:26;85.68;;;43.80;;
80101;SDS011;69407;44.966;19.622;2023-12-29T08:48:51;75.15;;;39.65;;
80101;SDS011;69407;44.966;19.622;2023-12-29T08:51:17;57.17;;;33.92;;
80101;SDS011;69407;44.966;19.622;2023-12-29T08:53:42;61.13;;;38.13;;
80101;SDS011;69407;44.966;19.622;2023-12-29T08:56:08;56.25;;;33.30;;
80101;SDS011;69407;44.966;19.622;2023-12-29T08:58:33;61.35;;;35.65;;
80101;SDS011;69407;44.966;19.622;2023-12-29T09:00:59;58.22;;;36.72;;
80101;SDS011;69407;44.966;19.622;2023-12-29T09:03:24;53.55;;;35.28;;
80101;SDS011;69407;44.966;19.622;2023-12-29T09:05:50;51.85;;;33.38;;
80101;SDS011;69407;44.966;19.622;2023-12-29T09:08:15;43.42;;;29.75;;
80101;SDS011;69407;44.966;19.622;2023-12-29T09:10:41;47.33;;;29.77;;
80101;SDS011;69407;44.966;19.622;2023-12-29T09:13:07;48.90;;;30.58;;
80101;SDS011;69407;44.966;19.622;2023-12-29T09:15:34;46.45;;;30.35;;
80101;SDS011;69407;44.966;19.622;2023-12-29T09:17:59;51.67;;;33.10;;
80101;SDS011;69407;44.966;19.622;2023-12-29T09:20:25;44.42;;;28.02;;
80101;SDS011;69407;44.966;19.622;2023-12-29T09:22:50;47.22;;;30.50;;
80101;SDS011;69407;44.966;19.622;2023-12-29T09:25:16;43.47;;;28.45;;
80101;SDS011;69407;44.966;19.622;2023-12-29T09:27:42;42.25;;;28.15;;
80101;SDS011;69407;44.966;19.622;2023-12-29T09:30:09;40.70;;;26.23;;
80101;SDS011;69407;44.966;19.622;2023-12-29T09:32:34;40.40;;;24.83;;
80101;SDS011;69407;44.966;19.622;2023-12-29T09:35:00;41.42;;;26.08;;
80101;SDS011;69407;44.966;19.622;2023-12-29T09:37:25;41.78;;;23.98;;
80101;SDS011;69407;44.966;19.622;2023-12-29T09:39:51;39.05;;;25.23;;
80101;SDS011;69407;44.966;19.622;2023-12-29T09:42:19;59.60;;;29.90;;
80101;SDS011;69407;44.966;19.622;2023-12-29T09:44:49;46.95;;;25.15;;
80101;SDS011;69407;44.966;19.622;2023-12-29T09:47:16;46.17;;;25.55;;
80101;SDS011;69407;44.966;19.622;2023-12-29T09:49:48;63.20;;;31.00;;
80101;SDS011;69407;44.966;19.622;2023-12-29T09:52:15;74.38;;;35.40;;
80101;SDS011;69407;44.966;19.622;2023-12-29T09:54:43;79.82;;;39.80;;
80101;SDS011;69407;44.966;19.622;2023-12-29T09:57:09;77.55;;;38.88;;
80101;SDS011;69407;44.966;19.622;2023-12-29T09:59:35;71.85;;;34.08;;
80101;SDS011;69407;44.966;19.622;2023-12-29T10:02:12;69.35;;;31.80;;
80101;SDS011;69407;44.966;19.622;2023-12-29T10:04:39;62.05;;;30.55;;
80101;SDS011;69407;44.966;19.622;2023-12-29T10:07:04;61.53;;;31.17;;
80101;SDS011;69407;44.966;19.622;2023-12-29T10:09:33;60.58;;;31.15;;
80101;SDS011;69407;44.966;19.622;2023-12-29T10:12:02;66.43;;;31.17;;
80101;SDS011;69407;44.966;19.622;2023-12-29T10:14:33;54.65;;;28.67;;
80101;SDS011;69407;44.966;19.622;2023-12-29T10:17:09;64.05;;;32.33;;
80101;SDS011;69407;44.966;19.622;2023-12-29T10:19:41;68.18;;;31.42;;
80101;SDS011;69407;44.966;19.622;2023-12-29T10:22:20;36.75;;;21.15;;
80101;SDS011;69407;44.966;19.622;2023-12-29T10:24:51;26.02;;;15.30;;
80101;SDS011;69407;44.966;19.622;2023-12-29T10:27:17;24.23;;;15.23;;
80101;SDS011;69407;44.966;19.622;2023-12-29T10:29:43;30.88;;;16.70;;
80101;SDS011;69407;44.966;19.622;2023-12-29T10:32:09;41.75;;;22.42;;
80101;SDS011;69407;44.966;19.622;2023-12-29T10:34:34;29.65;;;14.48;;
80101;SDS011;69407;44.966;19.622;2023-12-29T10:37:00;39.42;;;20.92;;
80101;SDS011;69407;44.966;19.622;2023-12-29T10:39:36;31.35;;;17.13;;
80101;SDS011;69407;44.966;19.622;2023-12-29T10:42:03;35.33;;;19.88;;
80101;SDS011;69407;44.966;19.622;2023-12-29T10:44:34;25.00;;;15.93;;
80101;SDS011;69407;44.966;19.622;2023-12-29T10:47:10;28.98;;;16.98;;
80101;SDS011;69407;44.966;19.622;2023-12-29T10:49:36;29.38;;;16.35;;
80101;SDS011;69407;44.966;19.622;2023-12-29T10:52:12;31.52;;;17.33;;
80101;SDS011;69407;44.966;19.622;2023-12-29T10:54:39;30.23;;;16.05;;
80101;SDS011;69407;44.966;19.622;2023-12-29T10:57:05;26.77;;;17.27;;
80101;SDS011;69407;44.966;19.622;2023-12-29T10:59:31;26.95;;;16.55;;
80101;SDS011;69407;44.966;19.622;2023-12-29T11:01:56;30.88;;;16.83;;
80101;SDS011;69407;44.966;19.622;2023-12-29T11:04:25;37.67;;;17.35;;
80101;SDS011;69407;44.966;19.622;2023-12-29T11:06:51;35.13;;;19.40;;
80101;SDS011;69407;44.966;19.622;2023-12-29T11:09:29;36.08;;;20.00;;
80101;SDS011;69407;44.966;19.622;2023-12-29T11:11:57;50.95;;;26.13;;
80101;SDS011;69407;44.966;19.622;2023-12-29T11:14:26;39.45;;;23.13;;
80101;SDS011;69407;44.966;19.622;2023-12-29T11:16:54;50.17;;;25.63;;
80101;SDS011;69407;44.966;19.622;2023-12-29T11:19:20;55.90;;;26.98;;
80101;SDS011;69407;44.966;19.622;2023-12-29T11:21:46;38.45;;;19.10;;
80101;SDS011;69407;44.966;19.622;2023-12-29T11:24:13;32.90;;;17.48;;
80101;SDS011;69407;44.966;19.622;2023-12-29T11:26:39;50.58;;;24.70;;
80101;SDS011;69407;44.966;19.622;2023-12-29T11:29:07;87.32;;;37.47;;
80101;SDS011;69407;44.966;19.622;2023-12-29T11:31:33;57.83;;;23.92;;
80101;SDS011;69407;44.966;19.622;2023-12-29T11:34:00;34.70;;;17.75;;
80101;SDS011;69407;44.966;19.622;2023-12-29T11:36:34;36.58;;;19.60;;
80101;SDS011;69407;44.966;19.622;2023-12-29T11:42:12;35.90;;;18.98;;
80101;SDS011;69407;44.966;19.622;2023-12-29T11:44:44;41.22;;;19.75;;
80101;SDS011;69407;44.966;19.622;2023-12-29T11:50:02;50.78;;;21.63;;
80101;SDS011;69407;44.966;19.622;2023-12-29T11:52:35;58.25;;;26.90;;
80101;SDS011;69407;44.966;19.622;2023-12-29T11:57:37;64.45;;;27.65;;
80101;SDS011;69407;44.966;19.622;2023-12-29T12:00:05;53.83;;;24.80;;
80101;SDS011;69407;44.966;19.622;2023-12-29T12:02:31;50.90;;;23.08;;
80101;SDS011;69407;44.966;19.622;2023-12-29T12:04:57;45.10;;;19.58;;
80101;SDS011;69407;44.966;19.622;2023-12-29T12:09:49;58.95;;;28.67;;
80101;SDS011;69407;44.966;19.622;2023-12-29T12:12:37;43.45;;;18.45;;
80101;SDS011;69407;44.966;19.622;2023-12-29T12:18:03;40.58;;;20.08;;
80101;SDS011;69407;44.966;19.622;2023-12-29T12:20:31;41.78;;;16.52;;
80101;SDS011;69407;44.966;19.622;2023-12-29T12:23:18;40.55;;;16.77;;
80101;SDS011;69407;44.966;19.622;2023-12-29T12:25:45;35.85;;;17.58;;
80101;SDS011;69407;44.966;19.622;2023-12-29T12:28:13;31.95;;;16.00;;
80101;SDS011;69407;44.966;19.622;2023-12-29T12:33:05;34.03;;;14.60;;
80101;SDS011;69407;44.966;19.622;2023-12-29T12:35:30;30.63;;;16.88;;
80101;SDS011;69407;44.966;19.622;2023-12-29T12:38:29;42.55;;;18.67;;
80101;SDS011;69407;44.966;19.622;2023-12-29T12:40:50;30.30;;;14.63;;
80101;SDS011;69407;44.966;19.622;2023-12-29T12:43:16;47.67;;;19.83;;
80101;SDS011;69407;44.966;19.622;2023-12-29T12:45:46;33.28;;;15.07;;
80101;SDS011;69407;44.966;19.622;2023-12-29T12:51:02;37.13;;;16.35;;
80101;SDS011;69407;44.966;19.622;2023-12-29T12:53:30;69.35;;;29.48;;
80101;SDS011;69407;44.966;19.622;2023-12-29T12:55:55;48.13;;;23.55;;
80101;SDS011;69407;44.966;19.622;2023-12-29T12:58:21;43.20;;;19.85;;
80101;SDS011;69407;44.966;19.622;2023-12-29T13:00:47;35.65;;;17.23;;
80101;SDS011;69407;44.966;19.622;2023-12-29T13:06:10;26.20;;;13.18;;
80101;SDS011;69407;44.966;19.622;2023-12-29T13:08:35;24.10;;;11.70;;
80101;SDS011;69407;44.966;19.622;2023-12-29T13:11:04;24.38;;;9.77;;
80101;SDS011;69407;44.966;19.622;2023-12-29T13:16:06;25.35;;;10.07;;
80101;SDS011;69407;44.966;19.622;2023-12-29T13:18:32;18.00;;;9.48;;
80101;SDS011;69407;44.966;19.622;2023-12-29T13:20:59;27.92;;;12.85;;
80101;SDS011;69407;44.966;19.622;2023-12-29T13:23:26;26.27;;;13.93;;
80101;SDS011;69407;44.966;19.622;2023-12-29T13:25:59;30.65;;;14.95;;
80101;SDS011;69407;44.966;19.622;2023-12-29T13:28:30;31.67;;;16.67;;
80101;SDS011;69407;44.966;19.622;2023-12-29T13:30:57;28.73;;;15.20;;
80101;SDS011;69407;44.966;19.622;2023-12-29T13:38:48;38.60;;;16.13;;
80101;SDS011;69407;44.966;19.622;2023-12-29T13:41:21;33.20;;;17.30;;
80101;SDS011;69407;44.966;19.622;2023-12-29T13:43:49;47.42;;;18.83;;
80101;SDS011;69407;44.966;19.622;2023-12-29T13:46:17;34.90;;;18.50;;
80101;SDS011;69407;44.966;19.622;2023-12-29T13:48:43;42.53;;;19.02;;
80101;SDS011;69407;44.966;19.622;2023-12-29T13:51:12;41.50;;;18.80;;
80101;SDS011;69407;44.966;19.622;2023-12-29T13:53:37;104.78;;;44.67;;
80101;SDS011;69407;44.966;19.622;2023-12-29T13:56:10;76.28;;;34.17;;
80101;SDS011;69407;44.966;19.622;2023-12-29T13:58:36;59.92;;;22.92;;
80101;SDS011;69407;44.966;19.622;2023-12-29T14:01:03;41.67;;;17.48;;
80101;SDS011;69407;44.966;19.622;2023-12-29T14:03:43;40.55;;;17.25;;
80101;SDS011;69407;44.966;19.622;2023-12-29T14:06:12;44.85;;;17.30;;
80101;SDS011;69407;44.966;19.622;2023-12-29T14:08:46;41.08;;;15.30;;
80101;SDS011;69407;44.966;19.622;2023-12-29T14:11:12;47.33;;;19.88;;
80101;SDS011;69407;44.966;19.622;2023-12-29T14:13:41;60.05;;;25.35;;
80101;SDS011;69407;44.966;19.622;2023-12-29T14:16:09;75.13;;;30.60;;
80101;SDS011;69407;44.966;19.622;2023-12-29T14:18:47;81.10;;;28.75;;
80101;SDS011;69407;44.966;19.622;2023-12-29T14:26:41;63.65;;;26.85;;
80101;SDS011;69407;44.966;19.622;2023-12-29T14:29:19;52.85;;;24.58;;
80101;SDS011;69407;44.966;19.622;2023-12-29T14:31:46;60.33;;;30.63;;
80101;SDS011;69407;44.966;19.622;2023-12-29T14:34:12;76.57;;;34.05;;
80101;SDS011;69407;44.966;19.622;2023-12-29T14:36:39;75.75;;;32.10;;
80101;SDS011;69407;44.966;19.622;2023-12-29T14:39:06;66.32;;;30.00;;
80101;SDS011;69407;44.966;19.622;2023-12-29T14:41:32;185.05;;;72.25;;